Time;durP1;ratioP1;P1;durP2;ratioP2;P2;SDS_P1;SDS_P2;PMS_P1;PMS_P2;Temp;Humidity;BMP_temperature;BMP_pressure;BME280_temperature;BME280_humidity;BME280_pressure;Samples;Min_cycle;Max_cycle;Signal;HPM_P1;HPM_P2
2022/03/18 00:08:46;;;;;;;2.78;0.80;;;;;;;;;;20920561;28;20052;-70
2022/03/18 00:18:48;;;;;;;3.08;1.05;;;;;;;;;;20919891;28;20390;-72
2022/03/18 00:28:50;;;;;;;1.92;1.02;;;;;;;;;;20918120;28;20083;-71
2022/03/18 00:38:52;;;;;;;3.28;0.90;;;;;;;;;;20919952;28;20481;-67
2022/03/18 00:59:14;;;;;;;2.00;0.70;;;;;;;;;;20920454;28;20049;-75
2022/03/18 01:09:15;;;;;;;1.75;0.80;;;;;;;;;;20917452;28;20049;-77
2022/03/18 01:19:18;;;;;;;3.33;0.85;;;;;;;;;;20913696;28;20045;-73
2022/03/18 01:29:20;;;;;;;3.10;0.73;;;;;;;;;;20912602;28;20049;-75
2022/03/18 01:39:22;;;;;;;2.17;0.70;;;;;;;;;;20913322;28;20045;-69
2022/03/18 01:49:24;;;;;;;2.45;1.05;;;;;;;;;;20910897;28;20132;-77
2022/03/18 01:59:26;;;;;;;5.70;0.95;;;;;;;;;;20911951;28;20045;-68
2022/03/18 02:09:27;;;;;;;2.55;0.75;;;;;;;;;;20913000;28;20071;-67
2022/03/18 02:19:30;;;;;;;1.77;0.60;;;;;;;;;;20913180;28;20049;-75
2022/03/18 02:29:32;;;;;;;3.60;1.20;;;;;;;;;;20967586;28;20053;-75
2022/03/18 02:39:39;;;;;;;1.77;0.70;;;;;;;;;;20920835;28;20049;-75
2022/03/18 02:49:43;;;;;;;2.23;0.70;;;;;;;;;;20926417;28;20107;-58
2022/03/18 02:59:47;;;;;;;1.73;0.88;;;;;;;;;;20923181;28;20060;-75
2022/03/18 03:09:51;;;;;;;2.42;0.60;;;;;;;;;;20923879;28;20161;-74
2022/03/18 03:20:12;;;;;;;2.65;0.70;;;;;;;;;;20922990;28;20049;-70
2022/03/18 03:30:21;;;;;;;1.98;0.80;;;;;;;;;;20922337;28;20175;-74
2022/03/18 03:40:26;;;;;;;1.50;0.60;;;;;;;;;;20921164;28;20045;-65
2022/03/18 03:50:31;;;;;;;1.50;0.73;;;;;;;;;;20919567;28;20092;-69
2022/03/18 04:00:36;;;;;;;2.78;0.70;;;;;;;;;;20919442;28;20045;-72
2022/03/18 04:10:42;;;;;;;1.40;0.60;;;;;;;;;;20919612;28;20403;-62
2022/03/18 04:20:50;;;;;;;1.80;0.60;;;;;;;;;;20918174;28;20059;-72
2022/03/18 04:30:54;;;;;;;5.07;0.87;;;;;;;;;;20917673;28;20409;-60
2022/03/18 04:41:16;;;;;;;2.10;0.70;;;;;;;;;;20917807;28;20456;-60
2022/03/18 04:51:19;;;;;;;1.77;0.68;;;;;;;;;;20915896;28;20141;-68
2022/03/18 05:01:22;;;;;;;2.55;0.90;;;;;;;;;;20914349;28;20049;-75
2022/03/18 05:11:24;;;;;;;2.13;0.77;;;;;;;;;;20915163;28;20390;-75
2022/03/18 05:21:28;;;;;;;1.27;0.80;;;;;;;;;;20914931;28;20136;-72
2022/03/18 05:31:35;;;;;;;2.88;1.10;;;;;;;;;;20915914;28;20060;-63
2022/03/18 05:41:37;;;;;;;3.53;1.00;;;;;;;;;;20948692;28;20045;-73
2022/03/18 05:51:39;;;;;;;3.83;1.23;;;;;;;;;;20914079;28;20516;-74
2022/03/18 06:01:41;;;;;;;4.28;1.20;;;;;;;;;;20918526;28;20052;-74
2022/03/18 06:11:48;;;;;;;2.42;1.15;;;;;;;;;;20933727;28;20057;-73
2022/03/18 06:21:51;;;;;;;3.40;1.10;;;;;;;;;;20941437;28;20053;-75
2022/03/18 06:31:54;;;;;;;2.42;1.00;;;;;;;;;;20939580;28;20049;-74
2022/03/18 06:41:57;;;;;;;4.50;1.38;;;;;;;;;;20937666;28;20044;-60
2022/03/18 06:51:59;;;;;;;2.85;1.15;;;;;;;;;;20925981;28;20068;-63
2022/03/18 07:02:02;;;;;;;5.88;1.30;;;;;;;;;;20923170;28;20452;-68
2022/03/18 07:12:04;;;;;;;6.72;1.10;;;;;;;;;;20922596;28;20048;-67
2022/03/18 07:22:06;;;;;;;4.45;2.13;;;;;;;;;;20920657;28;20053;-63
2022/03/18 07:32:09;;;;;;;4.32;1.30;;;;;;;;;;20920759;28;20044;-60
2022/03/18 07:42:11;;;;;;;5.35;1.67;;;;;;;;;;20920221;28;20127;-57
2022/03/18 07:52:13;;;;;;;8.35;4.47;;;;;;;;;;20918889;28;20056;-58
2022/03/18 08:02:15;;;;;;;6.95;1.77;;;;;;;;;;20919504;28;20060;-59
2022/03/18 08:12:17;;;;;;;5.95;1.95;;;;;;;;;;20918378;28;20053;-59
2022/03/18 08:22:21;;;;;;;6.40;1.92;;;;;;;;;;20917867;28;20055;-71
2022/03/18 08:32:22;;;;;;;4.03;2.30;;;;;;;;;;20917462;28;20127;-72
2022/03/18 08:42:24;;;;;;;4.32;1.65;;;;;;;;;;20916705;28;20064;-75
2022/03/18 08:52:27;;;;;;;4.63;1.50;;;;;;;;;;20916669;28;20099;-73
2022/03/18 09:02:29;;;;;;;5.03;1.50;;;;;;;;;;20914014;28;20052;-61
2022/03/18 09:12:31;;;;;;;3.63;2.03;;;;;;;;;;20913417;28;20477;-59
2022/03/18 09:22:32;;;;;;;6.97;2.28;;;;;;;;;;20912702;28;20531;-59
2022/03/18 09:32:35;;;;;;;6.78;1.70;;;;;;;;;;20912060;28;20049;-57
2022/03/18 09:42:53;;;;;;;6.93;1.65;;;;;;;;;;20912539;28;20049;-56
2022/03/18 09:52:55;;;;;;;4.18;1.40;;;;;;;;;;20909104;28;20048;-61
2022/03/18 10:03:11;;;;;;;7.03;1.50;;;;;;;;;;20910820;28;20128;-58
2022/03/18 10:13:15;;;;;;;2.92;1.40;;;;;;;;;;20910522;28;20103;-58
2022/03/18 10:23:23;;;;;;;6.32;2.53;;;;;;;;;;20910158;28;20049;-59
2022/03/18 10:44:18;;;;;;;6.47;2.15;;;;;;;;;;20593717;28;20047;-62
2022/03/18 10:54:28;;;;;;;7.18;1.60;;;;;;;;;;20578044;28;20065;-55
2022/03/18 11:04:30;;;;;;;5.65;1.75;;;;;;;;;;20673219;28;20057;-58
2022/03/18 11:14:32;;;;;;;3.45;1.60;;;;;;;;;;20732553;28;20049;-56
2022/03/18 11:24:36;;;;;;;3.40;1.15;;;;;;;;;;20893371;28;20076;-55
2022/03/18 11:34:50;;;;;;;2.93;1.30;;;;;;;;;;20886170;28;20491;-56
2022/03/18 11:44:53;;;;;;;7.18;1.70;;;;;;;;;;20837717;28;20042;-55
2022/03/18 11:55:07;;;;;;;3.97;1.35;;;;;;;;;;20836768;28;20084;-55
2022/03/18 12:05:18;;;;;;;10.80;2.80;;;;;;;;;;20836708;28;20054;-57
2022/03/18 12:15:22;;;;;;;4.78;1.60;;;;;;;;;;20835392;28;20057;-57
2022/03/18 12:25:24;;;;;;;4.80;2.10;;;;;;;;;;20834846;28;20053;-59
2022/03/18 12:35:35;;;;;;;8.88;2.20;;;;;;;;;;20833937;28;20478;-58
2022/03/18 12:45:39;;;;;;;3.83;1.70;;;;;;;;;;20833472;28;20052;-59
2022/03/18 12:55:41;;;;;;;5.93;2.00;;;;;;;;;;20831824;28;20092;-58
2022/03/18 13:05:44;;;;;;;3.38;2.10;;;;;;;;;;20831027;28;20056;-58
2022/03/18 13:15:57;;;;;;;5.88;2.08;;;;;;;;;;20830697;28;20053;-58
2022/03/18 13:26:00;;;;;;;5.63;2.28;;;;;;;;;;20829678;28;20064;-59
2022/03/18 13:36:03;;;;;;;5.10;2.75;;;;;;;;;;20829113;28;20128;-59
2022/03/18 13:46:11;;;;;;;6.82;2.30;;;;;;;;;;20829529;28;20196;-58
2022/03/18 13:56:17;;;;;;;5.85;2.15;;;;;;;;;;20829825;28;20056;-58
2022/03/18 14:06:19;;;;;;;6.63;2.17;;;;;;;;;;20829934;28;20516;-58
2022/03/18 14:16:21;;;;;;;6.03;2.35;;;;;;;;;;20829644;28;20578;-59
2022/03/18 14:26:25;;;;;;;6.93;2.70;;;;;;;;;;20830701;28;20099;-59
2022/03/18 14:36:26;;;;;;;5.80;2.00;;;;;;;;;;20843219;28;20057;-56
2022/03/18 14:46:30;;;;;;;6.68;2.50;;;;;;;;;;20844129;28;20049;-57
2022/03/18 14:56:31;;;;;;;5.00;2.03;;;;;;;;;;20842276;28;20478;-57
2022/03/18 15:06:33;;;;;;;5.80;1.80;;;;;;;;;;20841051;28;20080;-59
2022/03/18 15:16:35;;;;;;;4.28;2.10;;;;;;;;;;20841571;28;20081;-58
2022/03/18 15:26:40;;;;;;;8.55;2.05;;;;;;;;;;20839684;28;20061;-57
2022/03/18 15:36:41;;;;;;;4.32;1.60;;;;;;;;;;20838328;28;20050;-56
2022/03/18 15:46:47;;;;;;;3.10;1.15;;;;;;;;;;20837639;28;20413;-56
2022/03/18 15:56:50;;;;;;;3.95;1.50;;;;;;;;;;20835471;28;20060;-57
2022/03/18 16:06:52;;;;;;;3.55;2.13;;;;;;;;;;20836454;28;20052;-60
2022/03/18 16:16:54;;;;;;;1.90;1.40;;;;;;;;;;20835518;28;20058;-57
2022/03/18 16:26:59;;;;;;;2.50;1.38;;;;;;;;;;20834619;28;20077;-60
2022/03/18 16:37:00;;;;;;;2.92;1.60;;;;;;;;;;20834065;28;20049;-60
2022/03/18 16:57:23;;;;;;;3.10;1.27;;;;;;;;;;20830836;28;20409;-61
2022/03/18 17:07:26;;;;;;;4.88;1.50;;;;;;;;;;20830221;28;20111;-58
2022/03/18 17:17:28;;;;;;;3.78;1.70;;;;;;;;;;20830475;28;20500;-59
2022/03/18 17:27:32;;;;;;;3.75;1.65;;;;;;;;;;20829776;28;20057;-60
2022/03/18 17:37:35;;;;;;;2.07;1.27;;;;;;;;;;20828183;28;20135;-58
2022/03/18 17:47:37;;;;;;;5.72;1.70;;;;;;;;;;20828170;28;20049;-58
2022/03/18 17:57:39;;;;;;;3.33;1.60;;;;;;;;;;20829618;28;20116;-62
2022/03/18 18:07:41;;;;;;;5.00;1.92;;;;;;;;;;20832966;28;20045;-58
2022/03/18 18:17:43;;;;;;;7.35;4.00;;;;;;;;;;20843097;28;20045;-59
2022/03/18 18:27:46;;;;;;;4.93;2.42;;;;;;;;;;20841379;28;20053;-55
2022/03/18 18:37:48;;;;;;;17.90;9.60;;;;;;;;;;20842287;28;20053;-56
2022/03/18 18:47:49;;;;;;;7.05;2.67;;;;;;;;;;20842255;28;20049;-56
2022/03/18 18:57:55;;;;;;;7.03;2.80;;;;;;;;;;20840294;28;20061;-54
2022/03/18 19:07:57;;;;;;;5.13;2.60;;;;;;;;;;20840428;28;20053;-53
2022/03/18 19:18:00;;;;;;;7.05;2.75;;;;;;;;;;20838337;28;20089;-55
2022/03/18 19:28:03;;;;;;;5.17;2.93;;;;;;;;;;20838873;28;20053;-61
2022/03/18 19:38:05;;;;;;;7.13;3.17;;;;;;;;;;20837754;28;20501;-53
2022/03/18 19:48:07;;;;;;;10.10;3.60;;;;;;;;;;20836987;28;20045;-55
2022/03/18 20:08:30;;;;;;;12.27;5.05;;;;;;;;;;20835107;28;20095;-61
2022/03/18 20:18:32;;;;;;;10.43;5.75;;;;;;;;;;20834884;28;20089;-59
2022/03/18 20:28:34;;;;;;;7.00;4.22;;;;;;;;;;20833780;28;20045;-58
2022/03/18 20:38:38;;;;;;;8.85;4.05;;;;;;;;;;20834429;28;20449;-62
2022/03/18 20:48:39;;;;;;;11.07;3.78;;;;;;;;;;20832750;28;20045;-57
2022/03/18 20:58:42;;;;;;;13.60;5.72;;;;;;;;;;20832124;28;20141;-57
2022/03/18 21:08:44;;;;;;;8.00;4.35;;;;;;;;;;20832889;28;20042;-58
2022/03/18 21:18:47;;;;;;;8.93;4.60;;;;;;;;;;20830703;28;20145;-56
2022/03/18 21:39:10;;;;;;;10.13;4.93;;;;;;;;;;20829109;28;20049;-57
2022/03/18 21:49:14;;;;;;;9.13;5.05;;;;;;;;;;20830237;28;20081;-56
2022/03/18 21:59:19;;;;;;;8.90;5.00;;;;;;;;;;20828245;28;20050;-57
2022/03/18 22:09:20;;;;;;;;;;;;;;;;;;20828941;28;20485;-59
2022/03/18 22:19:22;;;;;;;13.55;5.80;;;;;;;;;;20828288;28;19921;-57
2022/03/18 22:29:24;;;;;;;15.23;7.05;;;;;;;;;;20827606;28;20096;-57
2022/03/18 22:39:26;;;;;;;11.00;5.30;;;;;;;;;;20827656;28;20046;-57
2022/03/18 22:49:29;;;;;;;9.48;4.88;;;;;;;;;;20826671;28;20050;-57
2022/03/18 22:59:30;;;;;;;10.07;5.00;;;;;;;;;;20840297;28;20205;-58
2022/03/18 23:09:32;;;;;;;10.00;5.28;;;;;;;;;;20840587;28;20064;-59
2022/03/18 23:19:34;;;;;;;10.57;5.57;;;;;;;;;;20840050;28;20053;-57
2022/03/18 23:29:36;;;;;;;10.23;5.90;;;;;;;;;;20839033;28;20050;-56
2022/03/18 23:39:37;;;;;;;12.32;4.85;;;;;;;;;;20839179;28;20072;-55
2022/03/18 23:49:39;;;;;;;8.32;5.75;;;;;;;;;;20838361;28;20081;-56
2022/03/18 23:59:41;;;;;;;7.72;5.47;;;;;;;;;;20837493;28;20057;-56
